Time;durP1;ratioP1;P1;durP2;ratioP2;P2;SDS_P1;SDS_P2;PMS_P1;PMS_P2;Temp;Humidity;BMP_temperature;BMP_pressure;BME280_temperature;BME280_humidity;BME280_pressure;Samples;Min_cycle;Max_cycle;Signal;HPM_P1;HPM_P2
2023/04/06 00:01:34;;;;;;;9.57;7.72;;;-1.00;99.90;;;;;;5060596;28;20016;-57
2023/04/06 00:03:59;;;;;;;9.02;7.18;;;-1.00;99.90;;;;;;5060079;28;20021;-56
2023/04/06 00:06:26;;;;;;;10.38;6.40;;;-1.10;99.90;;;;;;5061667;28;20021;-57
2023/04/06 00:08:52;;;;;;;10.82;6.93;;;-1.10;99.90;;;;;;5059514;28;20029;-58
2023/04/06 00:11:18;;;;;;;8.30;7.50;;;-1.20;99.90;;;;;;5059072;28;20028;-58
2023/04/06 00:13:43;;;;;;;11.30;7.25;;;-1.20;99.90;;;;;;5058186;28;20024;-57
2023/04/06 00:16:09;;;;;;;10.75;8.10;;;-1.20;99.90;;;;;;5059310;28;20029;-57
2023/04/06 00:18:35;;;;;;;8.27;7.40;;;-1.20;99.90;;;;;;5058901;28;20074;-58
2023/04/06 00:21:01;;;;;;;10.55;8.00;;;-1.30;99.90;;;;;;5055911;28;20563;-58
2023/04/06 00:23:26;;;;;;;8.15;7.35;;;-1.30;99.90;;;;;;5059221;28;20037;-58
2023/04/06 00:25:52;;;;;;;7.97;7.18;;;-1.30;99.90;;;;;;5055805;28;20036;-58
2023/04/06 00:28:20;;;;;;;10.48;8.23;;;-1.30;99.90;;;;;;5060678;28;20025;-57
2023/04/06 00:30:45;;;;;;;12.50;7.55;;;-1.30;99.90;;;;;;5058133;28;20023;-57
2023/04/06 00:33:11;;;;;;;11.63;8.68;;;-1.40;99.90;;;;;;5058393;28;20024;-56
2023/04/06 00:35:38;;;;;;;9.57;8.55;;;-1.40;99.90;;;;;;5058403;28;20060;-59
2023/04/06 00:38:04;;;;;;;8.38;7.57;;;-1.40;99.90;;;;;;5060796;28;20744;-57
2023/04/06 00:40:30;;;;;;;9.05;8.00;;;-1.40;99.90;;;;;;5063240;28;20070;-57
2023/04/06 00:42:56;;;;;;;8.65;6.95;;;-1.40;99.90;;;;;;5063739;28;20028;-57
2023/04/06 00:45:22;;;;;;;9.43;7.90;;;-1.40;99.90;;;;;;5065281;28;20032;-57
2023/04/06 00:47:47;;;;;;;9.45;7.72;;;-1.40;99.90;;;;;;5062507;28;20442;-57
2023/04/06 00:50:13;;;;;;;9.48;8.52;;;-1.50;99.90;;;;;;5063567;28;20063;-56
2023/04/06 00:52:39;;;;;;;10.70;7.78;;;-1.50;99.90;;;;;;5061592;28;20028;-59
2023/04/06 00:55:05;;;;;;;9.52;8.63;;;-1.50;99.90;;;;;;5062793;28;20117;-58
2023/04/06 00:57:31;;;;;;;11.30;8.75;;;-1.50;99.90;;;;;;5061265;28;20081;-58
2023/04/06 00:59:57;;;;;;;15.70;9.32;;;-1.60;99.90;;;;;;5061502;28;20021;-58
2023/04/06 01:02:25;;;;;;;12.35;9.30;;;-1.60;99.90;;;;;;5059357;28;20143;-58
2023/04/06 01:04:52;;;;;;;10.55;8.98;;;-1.60;99.90;;;;;;5065589;28;20107;-56
2023/04/06 01:07:18;;;;;;;10.57;8.32;;;-1.70;99.90;;;;;;5061307;28;20027;-59
2023/04/06 01:09:43;;;;;;;13.32;8.55;;;-1.70;99.90;;;;;;5060839;28;20025;-58
2023/04/06 01:12:09;;;;;;;9.82;8.93;;;-1.70;99.90;;;;;;5062339;28;20024;-58
2023/04/06 01:14:35;;;;;;;9.65;8.25;;;-1.80;99.90;;;;;;5063605;28;20115;-56
2023/04/06 01:17:00;;;;;;;9.07;8.23;;;-1.80;99.90;;;;;;5062355;28;20039;-57
2023/04/06 01:19:27;;;;;;;10.48;9.38;;;-1.80;99.90;;;;;;5061294;28;20020;-58
2023/04/06 01:21:53;;;;;;;10.43;7.55;;;-1.80;99.90;;;;;;5059199;28;20149;-59
2023/04/06 01:24:19;;;;;;;12.93;8.27;;;-1.80;99.90;;;;;;5062034;28;20560;-57
2023/04/06 01:26:45;;;;;;;10.52;9.52;;;-1.90;99.90;;;;;;5060677;28;20101;-58
2023/04/06 01:29:11;;;;;;;10.90;8.93;;;-1.90;99.90;;;;;;5065263;28;20672;-58
2023/04/06 01:31:38;;;;;;;12.20;10.30;;;-1.90;99.90;;;;;;5061121;28;20106;-58
2023/04/06 01:34:04;;;;;;;10.82;9.32;;;-1.90;99.90;;;;;;5060075;28;20100;-57
2023/04/06 01:36:30;;;;;;;10.10;9.13;;;-2.00;99.90;;;;;;5059519;28;20033;-57
2023/04/06 01:38:56;;;;;;;10.13;8.93;;;-2.00;99.90;;;;;;5061070;28;20119;-57
2023/04/06 01:41:22;;;;;;;56.15;23.70;;;-2.00;99.90;;;;;;5060439;28;20103;-58
2023/04/06 01:43:48;;;;;;;27.50;16.60;;;-2.00;99.90;;;;;;5060743;28;20085;-59
2023/04/06 01:46:14;;;;;;;33.42;19.98;;;-1.90;99.90;;;;;;5059510;28;20032;-57
2023/04/06 01:48:40;;;;;;;28.75;18.80;;;-1.90;99.90;;;;;;5060044;28;20021;-58
2023/04/06 01:51:06;;;;;;;14.57;13.07;;;-1.90;99.90;;;;;;5063692;28;20393;-58
2023/04/06 01:53:32;;;;;;;14.20;10.88;;;-1.90;99.90;;;;;;5061605;28;20148;-57
2023/04/06 01:55:57;;;;;;;13.93;9.40;;;-1.90;99.90;;;;;;5063857;28;20040;-58
2023/04/06 01:58:23;;;;;;;10.50;9.50;;;-2.00;99.90;;;;;;5062484;28;20033;-58
2023/04/06 02:00:49;;;;;;;10.40;9.15;;;-2.00;99.90;;;;;;5061255;28;20029;-59
2023/04/06 02:03:14;;;;;;;10.73;9.68;;;-2.00;99.90;;;;;;5062122;28;20496;-58
2023/04/06 02:05:40;;;;;;;11.07;9.98;;;-2.00;99.90;;;;;;5061581;28;20507;-57
2023/04/06 02:08:06;;;;;;;12.70;9.80;;;-2.10;99.90;;;;;;5059964;28;20098;-57
2023/04/06 02:10:33;;;;;;;10.40;9.38;;;-2.10;99.90;;;;;;5062398;28;20028;-58
2023/04/06 02:12:59;;;;;;;10.40;8.73;;;-2.10;99.90;;;;;;5060722;28;20036;-58
2023/04/06 02:15:25;;;;;;;10.27;9.25;;;-2.20;99.90;;;;;;5060423;28;20028;-57
2023/04/06 02:17:51;;;;;;;9.85;9.00;;;-2.20;99.90;;;;;;5062589;28;20036;-58
2023/04/06 02:20:17;;;;;;;11.23;9.18;;;-2.20;99.90;;;;;;5060889;28;20041;-59
2023/04/06 02:22:42;;;;;;;10.75;9.65;;;-2.20;99.90;;;;;;5062196;28;20043;-58
2023/04/06 02:25:08;;;;;;;10.75;9.60;;;-2.20;99.90;;;;;;5060272;28;20057;-58
2023/04/06 02:27:35;;;;;;;10.98;9.88;;;-2.20;99.90;;;;;;5060431;28;20033;-57
2023/04/06 02:30:01;;;;;;;16.63;10.70;;;-2.20;99.90;;;;;;5059208;28;20119;-58
2023/04/06 02:32:26;;;;;;;10.63;9.63;;;-2.30;99.90;;;;;;5061871;28;20048;-56
2023/04/06 02:34:52;;;;;;;11.93;10.57;;;-2.30;99.90;;;;;;5057906;28;20020;-59
2023/04/06 02:37:18;;;;;;;11.65;10.27;;;-2.30;99.90;;;;;;5058720;28;20384;-57
2023/04/06 02:39:43;;;;;;;13.43;9.90;;;-2.30;99.90;;;;;;5061038;28;20460;-58
2023/04/06 02:42:09;;;;;;;11.32;10.05;;;-2.30;99.90;;;;;;5059690;28;20086;-58
2023/04/06 02:44:35;;;;;;;14.20;10.80;;;-2.30;99.90;;;;;;5061832;28;20063;-57
2023/04/06 02:47:00;;;;;;;11.95;10.40;;;-2.40;99.90;;;;;;5059415;28;20025;-58
2023/04/06 02:49:26;;;;;;;12.10;10.90;;;-2.40;99.90;;;;;;5060526;28;20107;-58
2023/04/06 02:51:52;;;;;;;11.43;10.32;;;-2.40;99.90;;;;;;5059941;28;20020;-58
2023/04/06 02:54:17;;;;;;;11.95;9.95;;;-2.40;99.90;;;;;;5059067;28;20029;-56
2023/04/06 02:56:43;;;;;;;13.18;10.88;;;-2.30;99.90;;;;;;5060191;28;20488;-57
2023/04/06 02:59:09;;;;;;;11.52;9.68;;;-2.30;99.90;;;;;;5055697;28;20078;-57
2023/04/06 03:01:35;;;;;;;12.43;10.68;;;-2.30;99.90;;;;;;5058657;28;20478;-58
2023/04/06 03:04:01;;;;;;;12.10;10.45;;;-2.30;99.90;;;;;;5060804;28;20032;-57
2023/04/06 03:06:27;;;;;;;12.50;10.05;;;-2.30;99.90;;;;;;5059815;28;20025;-56
2023/04/06 03:08:54;;;;;;;11.27;9.73;;;-2.30;99.90;;;;;;5058856;28;20078;-58
2023/04/06 03:11:20;;;;;;;12.50;11.05;;;-2.40;99.90;;;;;;5058032;28;20078;-56
2023/04/06 03:13:46;;;;;;;12.52;10.95;;;-2.40;99.90;;;;;;5061015;28;20029;-57
2023/04/06 03:16:11;;;;;;;13.43;10.75;;;-2.40;99.90;;;;;;5056584;28;20024;-58
2023/04/06 03:18:37;;;;;;;11.82;10.07;;;-2.50;99.90;;;;;;5058616;28;20705;-56
2023/04/06 03:21:03;;;;;;;11.35;10.18;;;-2.50;99.90;;;;;;5060253;28;20040;-58
2023/04/06 03:23:29;;;;;;;12.13;10.85;;;-2.50;99.90;;;;;;5061978;28;20037;-57
2023/04/06 03:25:55;;;;;;;12.15;10.73;;;-2.60;99.90;;;;;;5057997;28;20401;-58
2023/04/06 03:28:20;;;;;;;11.77;10.65;;;-2.60;99.90;;;;;;5057665;28;20021;-57
2023/04/06 03:30:46;;;;;;;9.70;8.80;;;-2.60;99.90;;;;;;5059204;28;20082;-55
2023/04/06 03:33:12;;;;;;;11.25;9.95;;;-2.70;99.90;;;;;;5058938;28;20033;-56
2023/04/06 03:35:38;;;;;;;12.70;10.88;;;-2.70;99.90;;;;;;5057954;28;20029;-57
2023/04/06 03:38:04;;;;;;;14.25;11.15;;;-2.70;99.90;;;;;;5061441;28;20131;-57
2023/04/06 03:40:31;;;;;;;11.60;10.40;;;-2.70;99.90;;;;;;5057533;28;20031;-57
2023/04/06 03:42:56;;;;;;;12.52;11.23;;;-2.80;99.90;;;;;;5061389;28;20028;-58
2023/04/06 03:45:22;;;;;;;12.98;11.10;;;-2.80;99.90;;;;;;5058386;28;20025;-56
2023/04/06 03:47:48;;;;;;;13.60;10.82;;;-2.80;99.90;;;;;;5059064;28;20078;-57
2023/04/06 03:50:14;;;;;;;11.77;10.00;;;-2.80;99.90;;;;;;5056060;28;20025;-57
2023/04/06 03:52:40;;;;;;;11.13;10.13;;;-2.80;99.90;;;;;;5058110;28;20037;-57
2023/04/06 03:55:06;;;;;;;12.18;10.90;;;-2.80;99.90;;;;;;5059032;28;20025;-57
2023/04/06 03:57:32;;;;;;;12.75;10.55;;;-2.90;99.90;;;;;;5058221;28;20104;-57
2023/04/06 03:59:58;;;;;;;13.68;10.70;;;-2.90;99.90;;;;;;5058616;28;20135;-59
2023/04/06 04:02:23;;;;;;;11.48;10.38;;;-2.90;99.90;;;;;;5059628;28;20111;-58
2023/04/06 04:04:49;;;;;;;12.00;10.77;;;-2.90;99.90;;;;;;5055624;28;20556;-58
2023/04/06 04:07:15;;;;;;;11.63;10.00;;;-2.90;99.90;;;;;;5058273;28;20025;-56
2023/04/06 04:09:40;;;;;;;11.70;10.60;;;-2.90;99.90;;;;;;5058354;28;20040;-57
2023/04/06 04:12:06;;;;;;;13.68;11.32;;;-3.00;99.90;;;;;;5060769;28;20627;-57
2023/04/06 04:14:32;;;;;;;12.30;10.27;;;-3.00;99.90;;;;;;5063643;28;20082;-56
2023/04/06 04:16:58;;;;;;;11.40;10.23;;;-3.00;99.90;;;;;;5060961;28;20040;-58
2023/04/06 04:19:23;;;;;;;12.13;10.93;;;-3.00;99.90;;;;;;5062167;28;20074;-57
2023/04/06 04:21:49;;;;;;;13.13;11.18;;;-3.00;99.90;;;;;;5065780;28;20469;-56
2023/04/06 04:24:15;;;;;;;14.60;11.15;;;-3.10;99.90;;;;;;5063913;28;20056;-58
2023/04/06 04:26:40;;;;;;;13.95;12.07;;;-3.10;99.90;;;;;;5064630;28;20032;-58
2023/04/06 04:29:07;;;;;;;12.77;11.45;;;-3.10;99.90;;;;;;5061359;28;20036;-56
2023/04/06 04:31:32;;;;;;;13.32;11.68;;;-3.10;99.90;;;;;;5061079;28;20029;-55
2023/04/06 04:34:00;;;;;;;14.18;12.20;;;-3.10;99.90;;;;;;5060831;28;20025;-57
2023/04/06 04:36:26;;;;;;;13.20;10.75;;;-3.10;99.90;;;;;;5061241;28;20059;-56
2023/04/06 04:38:52;;;;;;;12.30;11.00;;;-3.20;99.90;;;;;;5061216;28;20056;-57
2023/04/06 04:41:18;;;;;;;13.52;12.13;;;-3.20;99.90;;;;;;5057003;28;20033;-58
2023/04/06 04:43:44;;;;;;;13.05;11.77;;;-3.20;99.90;;;;;;5061299;28;20144;-57
2023/04/06 04:46:10;;;;;;;12.73;11.35;;;-3.20;99.90;;;;;;5060237;28;20098;-58
2023/04/06 04:48:36;;;;;;;14.50;12.80;;;-3.20;99.90;;;;;;5065500;28;20594;-57
2023/04/06 04:51:01;;;;;;;16.63;12.90;;;-3.20;99.90;;;;;;5061835;28;20033;-57
2023/04/06 04:53:27;;;;;;;14.52;11.90;;;-3.10;99.90;;;;;;5060228;28;20032;-56
2023/04/06 04:55:53;;;;;;;14.25;12.52;;;-3.10;99.90;;;;;;5068459;28;20107;-56
2023/04/06 04:58:19;;;;;;;17.15;13.45;;;-3.10;99.90;;;;;;5065050;28;20020;-58
2023/04/06 05:00:45;;;;;;;13.95;12.55;;;-3.10;99.90;;;;;;5063416;28;20029;-58
2023/04/06 05:03:21;;;;;;;19.27;13.18;;;-3.00;99.90;;;;;;5062958;28;20033;-59
2023/04/06 05:05:47;;;;;;;12.52;11.23;;;-3.00;99.90;;;;;;5061487;28;20508;-57
2023/04/06 05:08:13;;;;;;;14.98;12.40;;;-3.00;99.90;;;;;;5061041;28;20037;-57
2023/04/06 05:10:38;;;;;;;14.38;11.73;;;-3.00;99.90;;;;;;5062970;28;20029;-56
2023/04/06 05:13:04;;;;;;;21.02;11.82;;;-2.90;99.90;;;;;;5057617;28;20767;-57
2023/04/06 05:15:30;;;;;;;19.80;12.15;;;-2.90;99.90;;;;;;5060420;28;20497;-57
2023/04/06 05:17:56;;;;;;;14.52;12.27;;;-2.90;99.90;;;;;;5061835;28;20100;-58
2023/04/06 05:20:21;;;;;;;14.52;12.40;;;-2.90;99.90;;;;;;5061058;28;20036;-57
2023/04/06 05:22:50;;;;;;;15.77;11.85;;;-2.80;99.90;;;;;;5059767;28;20098;-58
2023/04/06 05:25:15;;;;;;;15.38;11.70;;;-2.80;99.90;;;;;;5061694;28;20099;-57
2023/04/06 05:27:41;;;;;;;12.18;10.93;;;-2.70;99.90;;;;;;5063135;28;20116;-56
2023/04/06 05:30:07;;;;;;;15.25;11.85;;;-2.70;99.90;;;;;;5060996;28;20037;-57
2023/04/06 05:32:34;;;;;;;14.73;12.35;;;-2.70;99.90;;;;;;5054681;28;20031;-57
2023/04/06 05:35:00;;;;;;;14.85;11.88;;;-2.60;99.90;;;;;;5058585;28;20032;-58
2023/04/06 05:37:26;;;;;;;12.32;10.98;;;-2.50;99.90;;;;;;5061677;28;20502;-57
2023/04/06 05:39:51;;;;;;;15.48;12.52;;;-2.50;99.90;;;;;;5060859;28;20032;-56
2023/04/06 05:42:17;;;;;;;18.50;11.63;;;-2.40;99.90;;;;;;5059587;28;20044;-57
2023/04/06 05:44:43;;;;;;;16.58;11.43;;;-2.40;99.90;;;;;;5061209;28;20075;-57
2023/04/06 05:47:08;;;;;;;15.27;11.65;;;-2.30;99.90;;;;;;5061272;28;20524;-57
2023/04/06 05:49:34;;;;;;;13.25;11.60;;;-2.20;99.90;;;;;;5060900;28;20673;-57
2023/04/06 05:52:00;;;;;;;15.23;11.93;;;-2.20;99.90;;;;;;5059694;28;20082;-56
2023/04/06 05:54:26;;;;;;;15.10;12.32;;;-2.10;99.90;;;;;;5059887;28;20033;-60
2023/04/06 05:56:52;;;;;;;15.23;13.02;;;-2.00;99.90;;;;;;5061028;28;20052;-58
2023/04/06 05:59:17;;;;;;;13.15;11.82;;;-1.90;99.90;;;;;;5060436;28;20032;-57
2023/04/06 06:01:43;;;;;;;13.88;12.52;;;-1.90;99.90;;;;;;5059931;28;20483;-59
2023/04/06 06:04:09;;;;;;;17.48;13.18;;;-1.80;99.90;;;;;;5062032;28;20025;-56
2023/04/06 06:06:35;;;;;;;21.50;11.45;;;-1.80;99.90;;;;;;5061308;28;20089;-57
2023/04/06 06:09:03;;;;;;;12.77;11.48;;;-1.70;99.90;;;;;;5059477;28;20435;-60
2023/04/06 06:11:29;;;;;;;18.48;10.52;;;-1.60;99.90;;;;;;5062642;28;20032;-57
2023/04/06 06:13:55;;;;;;;12.35;11.07;;;-1.60;99.90;;;;;;5059566;28;20498;-58
2023/04/06 06:16:21;;;;;;;13.52;11.60;;;-1.50;99.90;;;;;;5058165;28;20107;-59
2023/04/06 06:18:47;;;;;;;17.05;12.18;;;-1.40;99.90;;;;;;5060499;28;20682;-56
2023/04/06 06:21:12;;;;;;;12.43;11.13;;;-1.30;99.90;;;;;;5062331;28;20850;-57
2023/04/06 06:23:38;;;;;;;13.05;11.73;;;-1.20;99.90;;;;;;5060047;28;20148;-57
2023/04/06 06:26:04;;;;;;;13.73;11.57;;;-1.10;99.90;;;;;;5058422;28;20029;-58
2023/04/06 06:28:30;;;;;;;12.85;11.35;;;-1.00;99.90;;;;;;5056928;28;20603;-57
2023/04/06 06:30:56;;;;;;;16.65;11.30;;;-0.90;99.90;;;;;;5056167;28;20375;-58
2023/04/06 06:33:22;;;;;;;14.10;11.63;;;-0.80;99.90;;;;;;5053279;28;20025;-58
2023/04/06 06:35:48;;;;;;;12.32;11.02;;;-0.70;99.90;;;;;;5055626;28;20036;-57
2023/04/06 06:38:14;;;;;;;15.05;12.13;;;-0.60;99.90;;;;;;5042242;28;20107;-57
2023/04/06 06:40:40;;;;;;;13.27;11.60;;;-0.50;99.90;;;;;;5058770;28;20029;-59
2023/04/06 06:43:06;;;;;;;14.80;11.23;;;-0.40;99.90;;;;;;5057196;28;20028;-57
2023/04/06 06:45:32;;;;;;;12.15;11.00;;;-0.30;99.90;;;;;;5061351;28;20761;-58
2023/04/06 06:47:58;;;;;;;12.70;11.43;;;-0.20;99.90;;;;;;5060500;28;20037;-58
2023/04/06 06:50:24;;;;;;;11.88;10.68;;;0.00;99.90;;;;;;5060266;28;20534;-57
2023/04/06 06:52:50;;;;;;;11.48;10.30;;;0.10;99.90;;;;;;5060301;28;20029;-59
2023/04/06 06:55:16;;;;;;;16.13;9.73;;;0.20;99.90;;;;;;5059471;28;20035;-58
2023/04/06 06:57:42;;;;;;;13.30;10.02;;;0.30;99.90;;;;;;5062591;28;20032;-57
2023/04/06 07:00:09;;;;;;;11.25;10.15;;;0.50;99.90;;;;;;5057623;28;20037;-56
2023/04/06 07:02:35;;;;;;;11.80;9.90;;;0.60;99.90;;;;;;5059865;28;20041;-59
2023/04/06 07:05:02;;;;;;;11.88;10.50;;;0.70;99.90;;;;;;5057614;28;20516;-57
2023/04/06 07:07:27;;;;;;;13.27;10.68;;;0.80;99.90;;;;;;5055926;28;20047;-58
2023/04/06 07:09:53;;;;;;;11.70;9.65;;;0.90;99.90;;;;;;5060852;28;20020;-57
2023/04/06 07:12:19;;;;;;;11.32;9.88;;;1.00;99.90;;;;;;5061288;28;20033;-56
2023/04/06 07:14:44;;;;;;;12.73;8.98;;;1.20;99.90;;;;;;5058288;28;20097;-58
2023/04/06 07:17:10;;;;;;;10.80;8.80;;;1.30;99.90;;;;;;5060860;28;20144;-59
2023/04/06 07:19:36;;;;;;;10.02;8.60;;;1.40;99.90;;;;;;5056704;28;20025;-57
2023/04/06 07:22:03;;;;;;;10.68;9.02;;;1.60;99.90;;;;;;5057162;28;20060;-57
2023/04/06 07:24:28;;;;;;;10.95;9.85;;;1.70;99.90;;;;;;5058101;28;20032;-59
2023/04/06 07:26:56;;;;;;;10.15;9.15;;;1.80;99.90;;;;;;5060533;28;20105;-57
2023/04/06 07:29:22;;;;;;;9.52;8.63;;;2.00;99.90;;;;;;5060115;28;20025;-60
2023/04/06 07:31:49;;;;;;;10.48;8.90;;;2.10;99.90;;;;;;5058614;28;20037;-59
2023/04/06 07:34:15;;;;;;;9.32;8.45;;;2.30;99.90;;;;;;5058705;28;20028;-59
2023/04/06 07:36:40;;;;;;;10.65;7.72;;;2.40;99.90;;;;;;5057536;28;20029;-56
2023/04/06 07:39:07;;;;;;;9.18;7.57;;;2.50;99.90;;;;;;5059764;28;20123;-57
2023/04/06 07:41:33;;;;;;;9.85;7.90;;;2.70;99.90;;;;;;5057997;28;20028;-58
2023/04/06 07:43:58;;;;;;;8.80;7.90;;;2.80;99.90;;;;;;5057438;28;20047;-59
2023/04/06 07:46:24;;;;;;;7.85;7.05;;;3.00;99.90;;;;;;5058517;28;20029;-59
2023/04/06 07:48:51;;;;;;;7.60;6.65;;;3.20;99.90;;;;;;5060739;28;20024;-58
2023/04/06 07:51:17;;;;;;;7.65;6.70;;;3.50;99.90;;;;;;5058523;28;20081;-57
2023/04/06 07:53:44;;;;;;;7.13;6.43;;;3.70;99.90;;;;;;5056587;28;20098;-57
2023/04/06 07:56:10;;;;;;;8.13;6.45;;;3.80;99.90;;;;;;5058241;28;20029;-58
2023/04/06 07:58:36;;;;;;;10.23;6.32;;;3.90;99.90;;;;;;5058291;28;20392;-57
2023/04/06 08:01:02;;;;;;;6.57;5.97;;;4.10;99.90;;;;;;5056863;28;20024;-57
2023/04/06 08:03:27;;;;;;;8.40;6.40;;;4.20;99.90;;;;;;5061087;28;20534;-58
2023/04/06 08:05:53;;;;;;;8.57;6.43;;;4.30;99.90;;;;;;5059094;28;20106;-59
2023/04/06 08:08:21;;;;;;;11.45;6.45;;;4.40;96.80;;;;;;5059585;28;20052;-58
2023/04/06 08:10:48;;;;;;;8.30;5.72;;;4.50;97.90;;;;;;5057786;28;20370;-58
2023/04/06 08:13:14;;;;;;;9.73;6.18;;;4.70;98.10;;;;;;5060701;28;20029;-57
2023/04/06 08:15:40;;;;;;;6.63;6.00;;;4.90;99.90;;;;;;5060525;28;20411;-59
2023/04/06 08:18:05;;;;;;;8.05;6.60;;;5.00;96.70;;;;;;5057388;28;20035;-59
2023/04/06 08:20:31;;;;;;;8.15;5.93;;;5.10;99.40;;;;;;5056581;28;20033;-59
2023/04/06 08:22:57;;;;;;;6.47;5.88;;;5.20;94.50;;;;;;5056154;28;20643;-59
2023/04/06 08:25:22;;;;;;;8.15;6.05;;;5.30;94.10;;;;;;5057604;28;20016;-58
2023/04/06 08:27:48;;;;;;;6.47;5.88;;;5.40;94.40;;;;;;5057090;28;20028;-59
2023/04/06 08:30:15;;;;;;;6.97;4.78;;;5.40;93.20;;;;;;5060286;28;20033;-58
2023/04/06 08:32:41;;;;;;;6.90;5.75;;;5.50;92.40;;;;;;5057166;28;20036;-57
2023/04/06 08:35:08;;;;;;;6.30;5.43;;;5.60;91.00;;;;;;5058838;28;20037;-58
2023/04/06 08:37:33;;;;;;;7.28;5.75;;;5.70;91.40;;;;;;5058746;28;20033;-57
2023/04/06 08:39:59;;;;;;;6.28;5.70;;;5.80;92.10;;;;;;5058161;28;20454;-59
2023/04/06 08:42:26;;;;;;;5.75;5.25;;;5.90;91.30;;;;;;5059153;28;20037;-56
2023/04/06 08:44:52;;;;;;;6.20;5.60;;;6.10;92.10;;;;;;5058745;28;20044;-59
2023/04/06 08:47:18;;;;;;;8.25;5.57;;;6.20;91.50;;;;;;5055141;28;20489;-57
2023/04/06 08:49:46;;;;;;;5.88;5.28;;;6.30;89.60;;;;;;5059975;28;20124;-58
2023/04/06 08:52:12;;;;;;;6.22;5.40;;;6.40;89.70;;;;;;5061750;28;20024;-58
2023/04/06 08:54:38;;;;;;;7.75;5.90;;;6.50;89.50;;;;;;5058208;28;20385;-58
2023/04/06 08:57:05;;;;;;;8.38;6.25;;;6.60;92.20;;;;;;5059545;28;20035;-59
2023/04/06 08:59:32;;;;;;;6.22;5.55;;;6.80;91.20;;;;;;5061880;28;20112;-58
2023/04/06 09:01:58;;;;;;;6.13;5.53;;;7.00;87.80;;;;;;5063773;28;20543;-59
2023/04/06 09:04:26;;;;;;;8.02;5.18;;;7.10;90.70;;;;;;5061380;28;20059;-59
2023/04/06 09:06:52;;;;;;;6.97;5.40;;;7.20;88.00;;;;;;5063072;28;20020;-57
2023/04/06 09:09:18;;;;;;;6.40;5.55;;;7.30;84.50;;;;;;5067108;28;20124;-59
2023/04/06 09:11:51;;;;;;;6.72;5.75;;;7.60;85.90;;;;;;5061741;28;20162;-59
2023/04/06 09:14:32;;;;;;;6.15;5.10;;;8.30;80.90;;;;;;5062073;28;20397;-58
2023/04/06 09:16:58;;;;;;;8.00;5.20;;;9.40;80.40;;;;;;5062683;28;20029;-59
2023/04/06 09:19:24;;;;;;;6.03;5.40;;;11.10;74.40;;;;;;5061377;28;20021;-60
2023/04/06 09:21:50;;;;;;;6.13;4.80;;;12.60;68.00;;;;;;5061521;28;20031;-60
2023/04/06 09:24:18;;;;;;;6.00;5.43;;;14.20;63.80;;;;;;5063151;28;20033;-60
2023/04/06 09:26:47;;;;;;;6.13;4.60;;;15.90;58.00;;;;;;5061015;28;20106;-60
2023/04/06 09:29:24;;;;;;;5.38;4.88;;;17.20;52.80;;;;;;5061371;28;20033;-60
2023/04/06 09:31:49;;;;;;;5.10;4.60;;;18.10;48.90;;;;;;5063950;28;20021;-60
2023/04/06 09:34:24;;;;;;;5.32;4.82;;;18.80;47.80;;;;;;5061961;28;20039;-60
2023/04/06 09:36:51;;;;;;;6.32;4.93;;;18.50;47.00;;;;;;5063147;28;20027;-60
2023/04/06 09:39:21;;;;;;;5.60;5.18;;;17.70;47.20;;;;;;5062288;28;20032;-60
2023/04/06 09:41:51;;;;;;;5.30;4.90;;;16.60;49.20;;;;;;5061979;28;20493;-60
2023/04/06 09:44:16;;;;;;;6.88;5.55;;;15.90;48.30;;;;;;5061620;28;20033;-60
2023/04/06 09:46:45;;;;;;;6.20;5.70;;;15.70;49.40;;;;;;5063803;28;20078;-59
2023/04/06 09:49:11;;;;;;;6.00;5.50;;;15.90;49.00;;;;;;5060661;28;20045;-59
2023/04/06 09:51:46;;;;;;;5.80;5.30;;;16.00;48.30;;;;;;5062533;28;20033;-59
2023/04/06 09:54:17;;;;;;;6.05;5.55;;;16.40;50.80;;;;;;5059485;28;20061;-58
2023/04/06 09:56:57;;;;;;;7.28;5.80;;;16.50;49.20;;;;;;5063616;28;20029;-59
2023/04/06 09:59:43;;;;;;;7.35;6.57;;;16.70;48.00;;;;;;5057743;28;20029;-61
2023/04/06 10:02:21;;;;;;;6.28;5.68;;;17.00;46.30;;;;;;5064089;28;20067;-59
2023/04/06 10:04:58;;;;;;;12.95;6.00;;;17.60;48.90;;;;;;5058961;28;20032;-60
2023/04/06 10:07:25;;;;;;;5.13;4.63;;;18.20;47.40;;;;;;5062689;28;20017;-59
2023/04/06 10:09:54;;;;;;;5.88;5.38;;;17.90;46.70;;;;;;5061734;28;20023;-60
2023/04/06 10:12:20;;;;;;;6.50;5.90;;;17.90;45.40;;;;;;5062534;28;20032;-60
2023/04/06 10:14:47;;;;;;;8.35;5.07;;;18.00;45.10;;;;;;5061917;28;20025;-60
2023/04/06 10:17:13;;;;;;;5.82;5.32;;;18.10;45.30;;;;;;5056516;28;20556;-60
2023/04/06 10:19:55;;;;;;;5.72;5.22;;;17.60;48.00;;;;;;5060006;28;20039;-59
2023/04/06 10:22:36;;;;;;;5.47;5.07;;;16.00;48.20;;;;;;5064151;28;20037;-59
2023/04/06 10:25:02;;;;;;;5.45;4.85;;;15.30;50.10;;;;;;5062518;28;20032;-59
2023/04/06 10:27:29;;;;;;;5.20;4.78;;;15.20;50.60;;;;;;5061613;28;20025;-59
2023/04/06 10:30:05;;;;;;;5.18;4.68;;;15.20;49.50;;;;;;5058749;28;20036;-60
2023/04/06 10:32:35;;;;;;;6.25;4.93;;;15.10;48.10;;;;;;5058439;28;20032;-59
2023/04/06 10:35:12;;;;;;;7.53;6.82;;;15.00;48.40;;;;;;5062200;28;20020;-60
2023/04/06 10:37:51;;;;;;;5.80;5.30;;;15.20;48.00;;;;;;5063588;28;20072;-60
2023/04/06 10:40:27;;;;;;;6.35;4.72;;;15.30;44.90;;;;;;5060724;28;20016;-60
2023/04/06 10:42:54;;;;;;;4.75;4.35;;;15.50;47.90;;;;;;5055875;28;20021;-60
2023/04/06 10:45:21;;;;;;;5.38;4.88;;;15.70;52.00;;;;;;5058849;28;20108;-59
2023/04/06 10:47:47;;;;;;;5.00;4.60;;;15.90;49.20;;;;;;5060657;28;20120;-59
2023/04/06 10:50:17;;;;;;;5.22;4.82;;;15.60;50.10;;;;;;5059910;28;20139;-60
2023/04/06 10:52:45;;;;;;;6.32;5.28;;;15.70;49.10;;;;;;5060952;28;20057;-60
2023/04/06 10:55:13;;;;;;;5.00;4.60;;;15.80;47.20;;;;;;5061345;28;20032;-60
2023/04/06 10:57:38;;;;;;;6.22;5.60;;;16.00;49.00;;;;;;5059377;28;20064;-59
2023/04/06 11:00:06;;;;;;;6.40;5.90;;;15.40;50.20;;;;;;5062020;28;20064;-58
2023/04/06 11:02:32;;;;;;;8.00;5.70;;;15.00;56.30;;;;;;5059528;28;20037;-59
2023/04/06 11:04:58;;;;;;;10.60;5.60;;;14.30;55.60;;;;;;5059107;28;20373;-60
2023/04/06 11:07:29;;;;;;;6.45;5.85;;;13.90;55.30;;;;;;5056843;28;20079;-58
2023/04/06 11:09:56;;;;;;;6.32;5.72;;;13.60;55.70;;;;;;5058853;28;20066;-59
2023/04/06 11:12:24;;;;;;;6.40;5.90;;;13.50;54.20;;;;;;5062306;28;20154;-59
2023/04/06 11:15:05;;;;;;;8.05;7.00;;;13.40;51.70;;;;;;5057495;28;20060;-59
2023/04/06 11:17:36;;;;;;;6.47;5.88;;;13.50;50.90;;;;;;5061957;28;20057;-59
2023/04/06 11:20:03;;;;;;;6.03;5.43;;;13.60;52.80;;;;;;5061059;28;20036;-59
2023/04/06 11:22:30;;;;;;;13.80;10.25;;;13.80;52.90;;;;;;5062208;28;20370;-59
2023/04/06 11:25:08;;;;;;;6.80;6.10;;;14.10;52.10;;;;;;5061323;28;20031;-58
2023/04/06 11:27:35;;;;;;;6.90;6.20;;;14.20;49.10;;;;;;5064520;28;20060;-59
2023/04/06 11:30:02;;;;;;;7.60;6.53;;;14.10;54.40;;;;;;5058428;28;20115;-60
2023/04/06 11:32:28;;;;;;;6.95;5.97;;;13.90;58.50;;;;;;5060413;28;20044;-59
2023/04/06 11:34:54;;;;;;;6.80;5.95;;;13.80;57.50;;;;;;5057867;28;20032;-60
2023/04/06 11:37:20;;;;;;;6.45;5.85;;;13.60;54.80;;;;;;5061115;28;20075;-59
2023/04/06 11:39:52;;;;;;;7.07;6.47;;;13.10;51.30;;;;;;5061854;28;20603;-59
2023/04/06 11:42:23;;;;;;;6.90;5.82;;;13.10;54.30;;;;;;5058612;28;20894;-58
2023/04/06 11:44:52;;;;;;;6.20;5.70;;;13.00;56.40;;;;;;5059078;28;20588;-59
2023/04/06 11:47:18;;;;;;;8.07;5.97;;;13.00;55.70;;;;;;5060101;28;20620;-59
2023/04/06 11:49:45;;;;;;;6.72;6.13;;;12.90;55.00;;;;;;5060710;28;20024;-59
2023/04/06 11:52:22;;;;;;;6.75;6.15;;;12.90;54.60;;;;;;5060631;28;20032;-58
2023/04/06 11:54:49;;;;;;;6.70;6.10;;;12.80;51.30;;;;;;5060279;28;20029;-59
2023/04/06 11:57:16;;;;;;;6.28;5.78;;;12.90;54.60;;;;;;5063193;28;20511;-60
2023/04/06 11:59:42;;;;;;;6.72;6.07;;;13.20;51.50;;;;;;5057409;28;20031;-59
2023/04/06 12:02:08;;;;;;;6.05;5.55;;;13.30;51.40;;;;;;5057518;28;20123;-58
2023/04/06 12:04:34;;;;;;;7.03;5.90;;;13.30;51.60;;;;;;5058405;28;20028;-59
2023/04/06 12:07:00;;;;;;;6.47;5.88;;;13.50;51.70;;;;;;5060849;28;20078;-58
2023/04/06 12:09:26;;;;;;;6.20;5.60;;;13.60;51.00;;;;;;5060046;28;20025;-59
2023/04/06 12:11:51;;;;;;;8.43;6.13;;;13.90;48.20;;;;;;5058265;28;20052;-59
2023/04/06 12:14:17;;;;;;;5.20;4.70;;;14.00;49.00;;;;;;5060655;28;20052;-59
2023/04/06 12:16:43;;;;;;;5.65;5.15;;;14.10;50.40;;;;;;5060104;28;20493;-59
2023/04/06 12:19:09;;;;;;;5.80;5.30;;;14.30;51.30;;;;;;5060468;28;20079;-60
2023/04/06 12:21:38;;;;;;;5.57;5.07;;;14.60;53.00;;;;;;5059972;28;20520;-60
2023/04/06 12:24:07;;;;;;;5.78;4.95;;;14.70;50.80;;;;;;5058675;28;20056;-58
2023/04/06 12:26:33;;;;;;;9.35;6.00;;;14.70;50.10;;;;;;5057207;28;20136;-59
2023/04/06 12:29:06;;;;;;;5.78;5.28;;;14.70;46.40;;;;;;5058220;28;20128;-59
2023/04/06 12:31:32;;;;;;;5.65;5.22;;;14.60;47.10;;;;;;5057126;28;20056;-59
2023/04/06 12:33:58;;;;;;;6.03;5.53;;;14.80;45.10;;;;;;5062979;28;20440;-59
2023/04/06 12:36:24;;;;;;;5.60;5.10;;;14.90;45.30;;;;;;5064441;28;20075;-59
2023/04/06 12:38:53;;;;;;;9.27;5.93;;;14.70;45.40;;;;;;5063060;28;20029;-58